sensor_id;sensor_type;location;lat;lon;timestamp;temperature;humidity
38582;DHT22;24349;53.720;10.014;2023-11-18T00:00:17;5.20;99.90
38582;DHT22;24349;53.720;10.014;2023-11-18T00:02:42;5.20;99.90
38582;DHT22;24349;53.720;10.014;2023-11-18T00:05:09;5.30;99.90
38582;DHT22;24349;53.720;10.014;2023-11-18T00:07:35;5.30;99.90
38582;DHT22;24349;53.720;10.014;2023-11-18T00:10:00;5.30;99.90
38582;DHT22;24349;53.720;10.014;2023-11-18T00:12:26;5.40;99.90
38582;DHT22;24349;53.720;10.014;2023-11-18T00:14:52;5.40;99.90
38582;DHT22;24349;53.720;10.014;2023-11-18T00:17:17;5.40;99.90
38582;DHT22;24349;53.720;10.014;2023-11-18T00:19:43;5.40;99.90
38582;DHT22;24349;53.720;10.014;2023-11-18T00:22:10;5.40;99.90
38582;DHT22;24349;53.720;10.014;2023-11-18T00:24:37;5.50;99.90
38582;DHT22;24349;53.720;10.014;2023-11-18T00:27:04;5.50;99.90
38582;DHT22;24349;53.720;10.014;2023-11-18T00:29:35;5.50;99.90
38582;DHT22;24349;53.720;10.014;2023-11-18T00:32:01;5.60;99.90
38582;DHT22;24349;53.720;10.014;2023-11-18T00:34:28;5.60;99.90
38582;DHT22;24349;53.720;10.014;2023-11-18T00:36:57;5.50;99.90
38582;DHT22;24349;53.720;10.014;2023-11-18T00:39:24;5.40;99.90
38582;DHT22;24349;53.720;10.014;2023-11-18T00:41:49;5.20;99.90
38582;DHT22;24349;53.720;10.014;2023-11-18T00:44:15;5.30;99.90
38582;DHT22;24349;53.720;10.014;2023-11-18T00:46:41;5.40;99.90
38582;DHT22;24349;53.720;10.014;2023-11-18T00:49:07;5.40;99.90
38582;DHT22;24349;53.720;10.014;2023-11-18T00:51:32;5.40;99.90
38582;DHT22;24349;53.720;10.014;2023-11-18T00:53:58;5.30;99.90
38582;DHT22;24349;53.720;10.014;2023-11-18T00:56:27;5.30;99.90
38582;DHT22;24349;53.720;10.014;2023-11-18T00:58:54;5.40;99.90
38582;DHT22;24349;53.720;10.014;2023-11-18T01:01:20;5.50;99.90
38582;DHT22;24349;53.720;10.014;2023-11-18T01:03:47;5.50;99.90
38582;DHT22;24349;53.720;10.014;2023-11-18T01:06:13;5.60;99.90
38582;DHT22;24349;53.720;10.014;2023-11-18T01:08:44;5.60;99.90
38582;DHT22;24349;53.720;10.014;2023-11-18T01:11:09;5.60;99.90
38582;DHT22;24349;53.720;10.014;2023-11-18T01:13:35;5.60;99.90
38582;DHT22;24349;53.720;10.014;2023-11-18T01:16:01;5.70;99.90
38582;DHT22;24349;53.720;10.014;2023-11-18T01:18:27;5.70;99.90
38582;DHT22;24349;53.720;10.014;2023-11-18T01:20:53;5.70;99.90
38582;DHT22;24349;53.720;10.014;2023-11-18T01:23:19;5.50;99.90
38582;DHT22;24349;53.720;10.014;2023-11-18T01:25:45;5.60;99.90
38582;DHT22;24349;53.720;10.014;2023-11-18T01:28:10;5.60;99.90
38582;DHT22;24349;53.720;10.014;2023-11-18T01:30:36;5.70;99.90
38582;DHT22;24349;53.720;10.014;2023-11-18T01:33:02;5.50;99.90
38582;DHT22;24349;53.720;10.014;2023-11-18T01:35:29;5.50;99.90
38582;DHT22;24349;53.720;10.014;2023-11-18T01:37:54;5.40;99.90
38582;DHT22;24349;53.720;10.014;2023-11-18T01:40:20;5.50;99.90
38582;DHT22;24349;53.720;10.014;2023-11-18T01:42:46;5.50;99.90
38582;DHT22;24349;53.720;10.014;2023-11-18T01:45:13;5.40;99.90
38582;DHT22;24349;53.720;10.014;2023-11-18T01:47:40;5.50;99.90
38582;DHT22;24349;53.720;10.014;2023-11-18T01:50:07;5.50;99.90
38582;DHT22;24349;53.720;10.014;2023-11-18T01:52:34;5.50;99.90
38582;DHT22;24349;53.720;10.014;2023-11-18T01:55:01;5.40;99.90
38582;DHT22;24349;53.720;10.014;2023-11-18T01:57:29;5.30;99.90
38582;DHT22;24349;53.720;10.014;2023-11-18T01:59:55;5.20;99.90
38582;DHT22;24349;53.720;10.014;2023-11-18T02:02:21;5.10;99.90
38582;DHT22;24349;53.720;10.014;2023-11-18T02:04:47;5.20;99.90
38582;DHT22;24349;53.720;10.014;2023-11-18T02:07:13;5.20;99.90
38582;DHT22;24349;53.720;10.014;2023-11-18T02:09:41;5.20;99.90
38582;DHT22;24349;53.720;10.014;2023-11-18T02:12:09;5.10;99.90
38582;DHT22;24349;53.720;10.014;2023-11-18T02:14:39;4.90;99.90
38582;DHT22;24349;53.720;10.014;2023-11-18T02:17:05;4.80;99.90
38582;DHT22;24349;53.720;10.014;2023-11-18T02:19:35;4.80;99.90
38582;DHT22;24349;53.720;10.014;2023-11-18T02:22:01;4.70;99.90
38582;DHT22;24349;53.720;10.014;2023-11-18T02:24:31;4.60;99.90
38582;DHT22;24349;53.720;10.014;2023-11-18T02:27:02;4.50;99.90
38582;DHT22;24349;53.720;10.014;2023-11-18T02:29:34;4.50;99.90
38582;DHT22;24349;53.720;10.014;2023-11-18T02:32:42;4.40;99.90
38582;DHT22;24349;53.720;10.014;2023-11-18T02:35:24;4.20;99.90
38582;DHT22;24349;53.720;10.014;2023-11-18T02:37:53;4.10;99.90
38582;DHT22;24349;53.720;10.014;2023-11-18T02:40:27;4.10;99.90
38582;DHT22;24349;53.720;10.014;2023-11-18T02:42:57;4.10;99.90
38582;DHT22;24349;53.720;10.014;2023-11-18T02:45:24;4.00;99.90
38582;DHT22;24349;53.720;10.014;2023-11-18T02:47:51;4.00;99.90
38582;DHT22;24349;53.720;10.014;2023-11-18T02:50:17;4.00;99.90
38582;DHT22;24349;53.720;10.014;2023-11-18T02:52:43;4.10;99.90
38582;DHT22;24349;53.720;10.014;2023-11-18T02:55:10;4.10;99.90
38582;DHT22;24349;53.720;10.014;2023-11-18T02:57:37;4.20;99.90
38582;DHT22;24349;53.720;10.014;2023-11-18T03:00:04;4.10;99.90
38582;DHT22;24349;53.720;10.014;2023-11-18T03:02:30;4.20;99.90
38582;DHT22;24349;53.720;10.014;2023-11-18T03:04:59;4.20;99.90
38582;DHT22;24349;53.720;10.014;2023-11-18T03:07:25;4.20;99.90
38582;DHT22;24349;53.720;10.014;2023-11-18T03:09:53;4.20;99.90
38582;DHT22;24349;53.720;10.014;2023-11-18T03:12:22;4.20;99.90
38582;DHT22;24349;53.720;10.014;2023-11-18T03:14:48;4.20;99.90
38582;DHT22;24349;53.720;10.014;2023-11-18T03:17:14;4.40;99.90
38582;DHT22;24349;53.720;10.014;2023-11-18T03:19:39;4.50;99.90
38582;DHT22;24349;53.720;10.014;2023-11-18T03:22:06;4.60;99.90
38582;DHT22;24349;53.720;10.014;2023-11-18T03:24:31;4.70;99.90
38582;DHT22;24349;53.720;10.014;2023-11-18T03:26:57;4.70;99.90
38582;DHT22;24349;53.720;10.014;2023-11-18T03:29:23;4.70;99.90
38582;DHT22;24349;53.720;10.014;2023-11-18T03:31:51;4.70;99.90
38582;DHT22;24349;53.720;10.014;2023-11-18T03:34:18;4.70;99.90
38582;DHT22;24349;53.720;10.014;2023-11-18T03:36:46;4.70;99.90
38582;DHT22;24349;53.720;10.014;2023-11-18T03:39:12;4.80;99.90
38582;DHT22;24349;53.720;10.014;2023-11-18T03:41:39;4.80;99.90
38582;DHT22;24349;53.720;10.014;2023-11-18T03:44:05;4.80;99.90
38582;DHT22;24349;53.720;10.014;2023-11-18T03:46:30;4.90;99.90
38582;DHT22;24349;53.720;10.014;2023-11-18T03:49:00;4.90;99.90
38582;DHT22;24349;53.720;10.014;2023-11-18T03:51:27;4.80;99.90
38582;DHT22;24349;53.720;10.014;2023-11-18T03:53:53;4.70;99.90
38582;DHT22;24349;53.720;10.014;2023-11-18T03:56:19;4.70;99.90
38582;DHT22;24349;53.720;10.014;2023-11-18T03:58:45;4.90;99.90
38582;DHT22;24349;53.720;10.014;2023-11-18T04:01:23;4.90;99.90
38582;DHT22;24349;53.720;10.014;2023-11-18T04:03:49;5.00;99.90
38582;DHT22;24349;53.720;10.014;2023-11-18T04:06:15;5.00;99.90
38582;DHT22;24349;53.720;10.014;2023-11-18T04:08:47;5.10;99.90
38582;DHT22;24349;53.720;10.014;2023-11-18T04:11:16;5.10;99.90
38582;DHT22;24349;53.720;10.014;2023-11-18T04:13:42;5.10;99.90
38582;DHT22;24349;53.720;10.014;2023-11-18T04:16:11;5.10;99.90
38582;DHT22;24349;53.720;10.014;2023-11-18T04:18:45;5.10;99.90
38582;DHT22;24349;53.720;10.014;2023-11-18T04:21:11;5.10;99.90
38582;DHT22;24349;53.720;10.014;2023-11-18T04:23:39;5.10;99.90
38582;DHT22;24349;53.720;10.014;2023-11-18T04:26:05;5.10;99.90
38582;DHT22;24349;53.720;10.014;2023-11-18T04:30:59;4.90;99.90
38582;DHT22;24349;53.720;10.014;2023-11-18T04:33:26;4.70;99.90
38582;DHT22;24349;53.720;10.014;2023-11-18T04:35:51;4.70;99.90
38582;DHT22;24349;53.720;10.014;2023-11-18T04:38:18;4.70;99.90
38582;DHT22;24349;53.720;10.014;2023-11-18T04:40:44;4.80;99.90
38582;DHT22;24349;53.720;10.014;2023-11-18T04:43:12;4.80;99.90
38582;DHT22;24349;53.720;10.014;2023-11-18T04:45:37;4.80;99.90
38582;DHT22;24349;53.720;10.014;2023-11-18T04:48:04;4.80;99.90
38582;DHT22;24349;53.720;10.014;2023-11-18T04:50:30;4.70;99.90
38582;DHT22;24349;53.720;10.014;2023-11-18T04:52:57;4.60;99.90
38582;DHT22;24349;53.720;10.014;2023-11-18T04:55:23;4.70;99.90
38582;DHT22;24349;53.720;10.014;2023-11-18T04:57:49;4.80;99.90
38582;DHT22;24349;53.720;10.014;2023-11-18T05:00:14;4.90;99.90
38582;DHT22;24349;53.720;10.014;2023-11-18T05:02:44;4.80;99.90
38582;DHT22;24349;53.720;10.014;2023-11-18T05:05:13;4.80;99.90
38582;DHT22;24349;53.720;10.014;2023-11-18T05:07:40;4.80;99.90
38582;DHT22;24349;53.720;10.014;2023-11-18T05:10:06;4.90;99.90
38582;DHT22;24349;53.720;10.014;2023-11-18T05:12:38;5.00;99.90
38582;DHT22;24349;53.720;10.014;2023-11-18T05:15:05;5.00;99.90
38582;DHT22;24349;53.720;10.014;2023-11-18T05:17:33;4.90;99.90
38582;DHT22;24349;53.720;10.014;2023-11-18T05:20:01;5.00;99.90
38582;DHT22;24349;53.720;10.014;2023-11-18T05:22:28;4.90;99.90
38582;DHT22;24349;53.720;10.014;2023-11-18T05:24:53;4.80;99.90
38582;DHT22;24349;53.720;10.014;2023-11-18T05:27:19;4.70;99.90
38582;DHT22;24349;53.720;10.014;2023-11-18T05:29:44;4.70;99.90
38582;DHT22;24349;53.720;10.014;2023-11-18T05:32:13;4.70;99.90
38582;DHT22;24349;53.720;10.014;2023-11-18T05:34:38;4.80;99.90
38582;DHT22;24349;53.720;10.014;2023-11-18T05:37:04;4.70;99.90
38582;DHT22;24349;53.720;10.014;2023-11-18T05:39:30;4.60;99.90
38582;DHT22;24349;53.720;10.014;2023-11-18T05:41:59;4.60;99.90
38582;DHT22;24349;53.720;10.014;2023-11-18T05:44:25;4.50;99.90
38582;DHT22;24349;53.720;10.014;2023-11-18T05:47:03;4.50;99.90
38582;DHT22;24349;53.720;10.014;2023-11-18T05:49:28;4.60;99.90
38582;DHT22;24349;53.720;10.014;2023-11-18T05:51:54;4.70;99.90
38582;DHT22;24349;53.720;10.014;2023-11-18T05:54:19;4.70;99.90
38582;DHT22;24349;53.720;10.014;2023-11-18T05:56:45;4.60;99.90
38582;DHT22;24349;53.720;10.014;2023-11-18T05:59:11;4.60;99.90
38582;DHT22;24349;53.720;10.014;2023-11-18T06:01:37;4.60;99.90
38582;DHT22;24349;53.720;10.014;2023-11-18T06:04:03;4.60;99.90
38582;DHT22;24349;53.720;10.014;2023-11-18T06:06:29;4.60;99.90
38582;DHT22;24349;53.720;10.014;2023-11-18T06:08:57;4.60;99.90
38582;DHT22;24349;53.720;10.014;2023-11-18T06:11:30;4.60;99.90
38582;DHT22;24349;53.720;10.014;2023-11-18T06:13:57;4.60;99.90
38582;DHT22;24349;53.720;10.014;2023-11-18T06:16:24;4.60;99.90
38582;DHT22;24349;53.720;10.014;2023-11-18T06:18:52;4.40;99.90
38582;DHT22;24349;53.720;10.014;2023-11-18T06:21:20;4.50;99.90
38582;DHT22;24349;53.720;10.014;2023-11-18T06:23:48;4.40;99.90
38582;DHT22;24349;53.720;10.014;2023-11-18T06:26:14;4.40;99.90
38582;DHT22;24349;53.720;10.014;2023-11-18T06:28:44;4.50;99.90
38582;DHT22;24349;53.720;10.014;2023-11-18T06:31:11;4.60;99.90
38582;DHT22;24349;53.720;10.014;2023-11-18T06:33:41;4.70;99.90
38582;DHT22;24349;53.720;10.014;2023-11-18T06:36:09;4.70;99.90
38582;DHT22;24349;53.720;10.014;2023-11-18T06:38:37;4.70;99.90
38582;DHT22;24349;53.720;10.014;2023-11-18T06:41:03;4.70;99.90
38582;DHT22;24349;53.720;10.014;2023-11-18T06:43:31;4.70;99.90
38582;DHT22;24349;53.720;10.014;2023-11-18T06:46:11;4.60;99.90
38582;DHT22;24349;53.720;10.014;2023-11-18T06:48:39;4.60;99.90
38582;DHT22;24349;53.720;10.014;2023-11-18T06:51:06;4.60;99.90
38582;DHT22;24349;53.720;10.014;2023-11-18T06:53:34;4.70;99.90
38582;DHT22;24349;53.720;10.014;2023-11-18T06:56:00;4.70;99.90
38582;DHT22;24349;53.720;10.014;2023-11-18T06:58:25;4.70;99.90
38582;DHT22;24349;53.720;10.014;2023-11-18T07:00:51;4.70;99.90
38582;DHT22;24349;53.720;10.014;2023-11-18T07:03:16;4.70;99.90
38582;DHT22;24349;53.720;10.014;2023-11-18T07:05:42;4.60;99.90
38582;DHT22;24349;53.720;10.014;2023-11-18T07:08:09;4.60;99.90
38582;DHT22;24349;53.720;10.014;2023-11-18T07:10:35;4.60;99.90
38582;DHT22;24349;53.720;10.014;2023-11-18T07:13:01;4.60;99.90
38582;DHT22;24349;53.720;10.014;2023-11-18T07:15:27;4.70;99.90
38582;DHT22;24349;53.720;10.014;2023-11-18T07:17:53;4.70;99.90
38582;DHT22;24349;53.720;10.014;2023-11-18T07:20:18;4.60;99.90
38582;DHT22;24349;53.720;10.014;2023-11-18T07:22:44;4.60;99.90
38582;DHT22;24349;53.720;10.014;2023-11-18T07:25:10;4.50;99.90
38582;DHT22;24349;53.720;10.014;2023-11-18T07:27:36;4.60;99.90
38582;DHT22;24349;53.720;10.014;2023-11-18T07:30:02;4.70;99.90
38582;DHT22;24349;53.720;10.014;2023-11-18T07:32:28;4.70;99.90
38582;DHT22;24349;53.720;10.014;2023-11-18T07:34:55;4.70;99.90
38582;DHT22;24349;53.720;10.014;2023-11-18T07:37:21;4.80;99.90
38582;DHT22;24349;53.720;10.014;2023-11-18T07:39:47;4.80;99.90
38582;DHT22;24349;53.720;10.014;2023-11-18T07:42:14;4.90;99.90
38582;DHT22;24349;53.720;10.014;2023-11-18T07:44:40;5.00;99.90
38582;DHT22;24349;53.720;10.014;2023-11-18T07:47:06;5.00;99.90
38582;DHT22;24349;53.720;10.014;2023-11-18T07:49:35;5.20;99.90
38582;DHT22;24349;53.720;10.014;2023-11-18T07:52:04;5.40;99.90
38582;DHT22;24349;53.720;10.014;2023-11-18T07:54:31;5.60;99.90
38582;DHT22;24349;53.720;10.014;2023-11-18T07:56:57;5.70;99.90
38582;DHT22;24349;53.720;10.014;2023-11-18T07:59:22;5.80;99.90
38582;DHT22;24349;53.720;10.014;2023-11-18T08:01:49;6.10;99.90
38582;DHT22;24349;53.720;10.014;2023-11-18T08:04:15;6.40;99.90
38582;DHT22;24349;53.720;10.014;2023-11-18T08:06:42;6.50;99.90
38582;DHT22;24349;53.720;10.014;2023-11-18T08:09:09;6.70;99.90
38582;DHT22;24349;53.720;10.014;2023-11-18T08:11:38;7.00;99.90
38582;DHT22;24349;53.720;10.014;2023-11-18T08:14:09;7.60;99.90
38582;DHT22;24349;53.720;10.014;2023-11-18T08:16:35;8.40;99.90
38582;DHT22;24349;53.720;10.014;2023-11-18T08:19:01;8.70;27.80
38582;DHT22;24349;53.720;10.014;2023-11-18T08:21:33;8.40;1.00
38582;DHT22;24349;53.720;10.014;2023-11-18T08:23:59;8.60;1.00
38582;DHT22;24349;53.720;10.014;2023-11-18T08:26:25;9.00;99.90
38582;DHT22;24349;53.720;10.014;2023-11-18T08:28:51;8.90;1.00
38582;DHT22;24349;53.720;10.014;2023-11-18T08:31:17;9.00;99.90
38582;DHT22;24349;53.720;10.014;2023-11-18T08:33:43;8.60;1.00
38582;DHT22;24349;53.720;10.014;2023-11-18T08:36:10;7.80;99.90
38582;DHT22;24349;53.720;10.014;2023-11-18T08:38:39;7.70;1.00
38582;DHT22;24349;53.720;10.014;2023-11-18T08:41:05;7.70;1.00
38582;DHT22;24349;53.720;10.014;2023-11-18T08:43:34;7.80;1.00
38582;DHT22;24349;53.720;10.014;2023-11-18T08:46:01;8.10;1.00
38582;DHT22;24349;53.720;10.014;2023-11-18T08:48:26;8.70;99.90
38582;DHT22;24349;53.720;10.014;2023-11-18T08:50:53;9.30;99.90
38582;DHT22;24349;53.720;10.014;2023-11-18T08:53:19;9.60;1.00
38582;DHT22;24349;53.720;10.014;2023-11-18T08:55:51;10.40;76.10
38582;DHT22;24349;53.720;10.014;2023-11-18T08:58:19;11.20;1.00
38582;DHT22;24349;53.720;10.014;2023-11-18T09:00:46;10.90;99.90
38582;DHT22;24349;53.720;10.014;2023-11-18T09:03:23;10.10;1.00
38582;DHT22;24349;53.720;10.014;2023-11-18T09:06:03;9.50;99.90
38582;DHT22;24349;53.720;10.014;2023-11-18T09:08:33;9.80;99.90
38582;DHT22;24349;53.720;10.014;2023-11-18T09:11:03;10.10;99.90
38582;DHT22;24349;53.720;10.014;2023-11-18T09:13:30;9.30;1.00
38582;DHT22;24349;53.720;10.014;2023-11-18T09:16:01;8.80;99.90
38582;DHT22;24349;53.720;10.014;2023-11-18T09:18:29;8.80;34.10
38582;DHT22;24349;53.720;10.014;2023-11-18T09:20:56;8.60;13.20
38582;DHT22;24349;53.720;10.014;2023-11-18T09:23:25;8.40;1.00
38582;DHT22;24349;53.720;10.014;2023-11-18T09:25:53;8.50;99.90
38582;DHT22;24349;53.720;10.014;2023-11-18T09:28:20;8.40;99.90
38582;DHT22;24349;53.720;10.014;2023-11-18T09:30:46;8.80;23.60
38582;DHT22;24349;53.720;10.014;2023-11-18T09:33:18;9.20;99.90
38582;DHT22;24349;53.720;10.014;2023-11-18T09:36:07;9.30;99.90
38582;DHT22;24349;53.720;10.014;2023-11-18T09:38:34;10.00;99.90
38582;DHT22;24349;53.720;10.014;2023-11-18T09:41:03;10.80;99.90
38582;DHT22;24349;53.720;10.014;2023-11-18T09:43:30;11.60;99.90
38582;DHT22;24349;53.720;10.014;2023-11-18T09:46:06;12.10;99.90
38582;DHT22;24349;53.720;10.014;2023-11-18T09:51:15;12.90;39.50
38582;DHT22;24349;53.720;10.014;2023-11-18T09:53:44;13.10;1.00
38582;DHT22;24349;53.720;10.014;2023-11-18T09:58:51;13.50;1.00
38582;DHT22;24349;53.720;10.014;2023-11-18T10:01:21;13.10;1.00
38582;DHT22;24349;53.720;10.014;2023-11-18T10:03:48;13.50;1.00
38582;DHT22;24349;53.720;10.014;2023-11-18T10:06:14;13.80;1.00
38582;DHT22;24349;53.720;10.014;2023-11-18T10:08:41;14.00;1.00
38582;DHT22;24349;53.720;10.014;2023-11-18T10:11:12;13.90;1.00
38582;DHT22;24349;53.720;10.014;2023-11-18T10:13:39;12.60;1.00
38582;DHT22;24349;53.720;10.014;2023-11-18T10:16:07;12.00;1.00
38582;DHT22;24349;53.720;10.014;2023-11-18T10:18:33;12.40;1.00
38582;DHT22;24349;53.720;10.014;2023-11-18T10:21:02;13.10;1.00
38582;DHT22;24349;53.720;10.014;2023-11-18T10:23:29;12.60;1.00
38582;DHT22;24349;53.720;10.014;2023-11-18T10:25:59;13.30;1.00
38582;DHT22;24349;53.720;10.014;2023-11-18T10:28:33;13.80;1.00
38582;DHT22;24349;53.720;10.014;2023-11-18T10:31:02;13.50;1.00
38582;DHT22;24349;53.720;10.014;2023-11-18T10:33:38;13.40;1.00
38582;DHT22;24349;53.720;10.014;2023-11-18T10:36:04;14.00;1.00
38582;DHT22;24349;53.720;10.014;2023-11-18T10:38:37;13.70;1.00
38582;DHT22;24349;53.720;10.014;2023-11-18T10:41:04;13.70;1.00
38582;DHT22;24349;53.720;10.014;2023-11-18T10:43:31;14.20;1.00
38582;DHT22;24349;53.720;10.014;2023-11-18T10:48:38;13.40;1.00
38582;DHT22;24349;53.720;10.014;2023-11-18T10:51:07;13.30;1.00
38582;DHT22;24349;53.720;10.014;2023-11-18T10:53:32;13.30;1.00
38582;DHT22;24349;53.720;10.014;2023-11-18T10:55:58;12.90;1.00
38582;DHT22;24349;53.720;10.014;2023-11-18T10:58:25;13.20;1.00
38582;DHT22;24349;53.720;10.014;2023-11-18T11:00:52;13.70;1.00
38582;DHT22;24349;53.720;10.014;2023-11-18T11:03:25;14.00;1.00
38582;DHT22;24349;53.720;10.014;2023-11-18T11:05:52;13.20;1.00
38582;DHT22;24349;53.720;10.014;2023-11-18T11:08:19;13.50;1.00
38582;DHT22;24349;53.720;10.014;2023-11-18T11:10:46;13.70;1.00
38582;DHT22;24349;53.720;10.014;2023-11-18T11:13:14;13.20;1.00
38582;DHT22;24349;53.720;10.014;2023-11-18T11:15:43;12.80;1.00
38582;DHT22;24349;53.720;10.014;2023-11-18T11:18:20;13.40;1.00
38582;DHT22;24349;53.720;10.014;2023-11-18T11:21:04;13.30;1.00
38582;DHT22;24349;53.720;10.014;2023-11-18T11:24:03;13.30;1.00
38582;DHT22;24349;53.720;10.014;2023-11-18T11:32:16;14.60;1.00
38582;DHT22;24349;53.720;10.014;2023-11-18T11:34:54;14.40;1.00
38582;DHT22;24349;53.720;10.014;2023-11-18T11:37:24;13.70;1.00
38582;DHT22;24349;53.720;10.014;2023-11-18T11:39:51;14.20;1.00
38582;DHT22;24349;53.720;10.014;2023-11-18T11:42:20;14.40;1.00
38582;DHT22;24349;53.720;10.014;2023-11-18T11:44:48;12.30;1.00
38582;DHT22;24349;53.720;10.014;2023-11-18T11:47:14;11.50;1.00
38582;DHT22;24349;53.720;10.014;2023-11-18T11:50:03;12.20;1.00
38582;DHT22;24349;53.720;10.014;2023-11-18T11:52:39;11.90;1.00
38582;DHT22;24349;53.720;10.014;2023-11-18T11:55:26;11.50;1.00
38582;DHT22;24349;53.720;10.014;2023-11-18T11:57:55;12.40;1.00
38582;DHT22;24349;53.720;10.014;2023-11-18T12:00:24;12.90;1.00
38582;DHT22;24349;53.720;10.014;2023-11-18T12:02:52;12.70;1.00
38582;DHT22;24349;53.720;10.014;2023-11-18T12:05:23;11.70;1.00
38582;DHT22;24349;53.720;10.014;2023-11-18T12:07:55;11.10;1.00
38582;DHT22;24349;53.720;10.014;2023-11-18T12:10:20;9.70;99.90
38582;DHT22;24349;53.720;10.014;2023-11-18T12:12:47;9.10;5.20
38582;DHT22;24349;53.720;10.014;2023-11-18T12:15:13;8.80;99.90
38582;DHT22;24349;53.720;10.014;2023-11-18T12:20:43;8.20;1.00
38582;DHT22;24349;53.720;10.014;2023-11-18T12:23:20;7.90;99.90
38582;DHT22;24349;53.720;10.014;2023-11-18T12:25:51;7.70;99.90
38582;DHT22;24349;53.720;10.014;2023-11-18T12:28:24;7.70;99.90
38582;DHT22;24349;53.720;10.014;2023-11-18T12:30:53;7.60;1.00
38582;DHT22;24349;53.720;10.014;2023-11-18T12:33:22;7.60;99.90
38582;DHT22;24349;53.720;10.014;2023-11-18T12:39:20;7.50;1.00
38582;DHT22;24349;53.720;10.014;2023-11-18T12:42:07;7.60;1.00
38582;DHT22;24349;53.720;10.014;2023-11-18T12:47:42;7.50;99.90
38582;DHT22;24349;53.720;10.014;2023-11-18T12:50:11;7.60;99.90
38582;DHT22;24349;53.720;10.014;2023-11-18T12:52:51;7.60;99.90
38582;DHT22;24349;53.720;10.014;2023-11-18T12:55:17;7.70;99.90
38582;DHT22;24349;53.720;10.014;2023-11-18T12:57:48;7.50;49.90
38582;DHT22;24349;53.720;10.014;2023-11-18T13:00:16;7.30;99.90
38582;DHT22;24349;53.720;10.014;2023-11-18T13:02:55;7.20;99.90
38582;DHT22;24349;53.720;10.014;2023-11-18T13:05:23;7.10;20.70
38582;DHT22;24349;53.720;10.014;2023-11-18T13:07:49;7.10;99.90
38582;DHT22;24349;53.720;10.014;2023-11-18T13:10:16;7.00;99.90
38582;DHT22;24349;53.720;10.014;2023-11-18T13:12:43;7.00;99.90
38582;DHT22;24349;53.720;10.014;2023-11-18T13:15:10;6.80;99.90
38582;DHT22;24349;53.720;10.014;2023-11-18T13:17:36;6.70;1.00
38582;DHT22;24349;53.720;10.014;2023-11-18T13:20:15;6.70;99.90
38582;DHT22;24349;53.720;10.014;2023-11-18T13:22:43;6.70;1.00
38582;DHT22;24349;53.720;10.014;2023-11-18T13:25:08;6.80;1.00
38582;DHT22;24349;53.720;10.014;2023-11-18T13:27:35;6.80;47.80
38582;DHT22;24349;53.720;10.014;2023-11-18T13:30:01;6.70;1.00
38582;DHT22;24349;53.720;10.014;2023-11-18T13:32:29;6.80;97.10
38582;DHT22;24349;53.720;10.014;2023-11-18T13:34:55;6.70;71.10
38582;DHT22;24349;53.720;10.014;2023-11-18T13:37:21;6.60;93.60
38582;DHT22;24349;53.720;10.014;2023-11-18T13:39:54;6.60;99.90
38582;DHT22;24349;53.720;10.014;2023-11-18T13:42:24;6.60;99.90
38582;DHT22;24349;53.720;10.014;2023-11-18T13:44:51;6.50;99.90
38582;DHT22;24349;53.720;10.014;2023-11-18T13:47:18;6.50;99.90
38582;DHT22;24349;53.720;10.014;2023-11-18T13:49:44;6.60;99.90
38582;DHT22;24349;53.720;10.014;2023-11-18T13:52:12;6.50;99.90
38582;DHT22;24349;53.720;10.014;2023-11-18T13:54:41;6.40;99.90
38582;DHT22;24349;53.720;10.014;2023-11-18T13:57:10;6.40;99.90
38582;DHT22;24349;53.720;10.014;2023-11-18T13:59:37;6.30;99.90
38582;DHT22;24349;53.720;10.014;2023-11-18T14:02:04;6.30;99.90
38582;DHT22;24349;53.720;10.014;2023-11-18T14:04:31;6.30;99.90
38582;DHT22;24349;53.720;10.014;2023-11-18T14:07:02;6.30;99.90
38582;DHT22;24349;53.720;10.014;2023-11-18T14:09:32;6.30;99.90
38582;DHT22;24349;53.720;10.014;2023-11-18T14:12:02;6.20;99.90
38582;DHT22;24349;53.720;10.014;2023-11-18T14:14:28;6.20;99.90
38582;DHT22;24349;53.720;10.014;2023-11-18T14:16:54;6.20;99.90
38582;DHT22;24349;53.720;10.014;2023-11-18T14:19:23;6.20;99.90
38582;DHT22;24349;53.720;10.014;2023-11-18T14:21:56;6.20;99.90
38582;DHT22;24349;53.720;10.014;2023-11-18T14:24:22;6.20;99.90
38582;DHT22;24349;53.720;10.014;2023-11-18T14:26:56;6.10;99.90
38582;DHT22;24349;53.720;10.014;2023-11-18T14:29:22;6.10;99.90
38582;DHT22;24349;53.720;10.014;2023-11-18T14:31:48;6.10;99.90
38582;DHT22;24349;53.720;10.014;2023-11-18T14:34:14;6.10;99.90
38582;DHT22;24349;53.720;10.014;2023-11-18T14:36:41;6.10;99.90
38582;DHT22;24349;53.720;10.014;2023-11-18T14:39:08;6.10;99.90
38582;DHT22;24349;53.720;10.014;2023-11-18T14:41:36;6.10;99.90
38582;DHT22;24349;53.720;10.014;2023-11-18T14:44:02;6.00;99.90
38582;DHT22;24349;53.720;10.014;2023-11-18T14:46:30;6.00;99.90
38582;DHT22;24349;53.720;10.014;2023-11-18T14:48:57;6.00;99.90
38582;DHT22;24349;53.720;10.014;2023-11-18T14:51:23;6.00;99.90
38582;DHT22;24349;53.720;10.014;2023-11-18T14:53:48;5.90;99.90
38582;DHT22;24349;53.720;10.014;2023-11-18T14:56:14;5.90;1.00
38582;DHT22;24349;53.720;10.014;2023-11-18T14:58:40;5.90;99.90
38582;DHT22;24349;53.720;10.014;2023-11-18T15:01:06;5.90;1.00
38582;DHT22;24349;53.720;10.014;2023-11-18T15:03:36;5.90;99.90
38582;DHT22;24349;53.720;10.014;2023-11-18T15:06:02;5.90;99.90
38582;DHT22;24349;53.720;10.014;2023-11-18T15:08:28;5.90;99.90
38582;DHT22;24349;53.720;10.014;2023-11-18T15:10:55;5.90;1.00
38582;DHT22;24349;53.720;10.014;2023-11-18T15:13:24;5.90;99.90
38582;DHT22;24349;53.720;10.014;2023-11-18T15:15:50;5.90;1.00
38582;DHT22;24349;53.720;10.014;2023-11-18T15:18:16;5.80;1.00
38582;DHT22;24349;53.720;10.014;2023-11-18T15:20:49;5.80;1.00
38582;DHT22;24349;53.720;10.014;2023-11-18T15:23:16;5.80;1.00
38582;DHT22;24349;53.720;10.014;2023-11-18T15:25:47;5.80;99.90
38582;DHT22;24349;53.720;10.014;2023-11-18T15:28:15;5.80;99.90
38582;DHT22;24349;53.720;10.014;2023-11-18T15:30:42;5.80;1.00
38582;DHT22;24349;53.720;10.014;2023-11-18T15:33:09;5.70;1.00
38582;DHT22;24349;53.720;10.014;2023-11-18T15:35:36;5.80;99.90
38582;DHT22;24349;53.720;10.014;2023-11-18T15:38:12;5.70;1.00
38582;DHT22;24349;53.720;10.014;2023-11-18T15:40:42;5.80;99.90
38582;DHT22;24349;53.720;10.014;2023-11-18T15:43:08;5.80;99.90
38582;DHT22;24349;53.720;10.014;2023-11-18T15:45:37;5.80;99.90
38582;DHT22;24349;53.720;10.014;2023-11-18T15:48:03;5.80;99.90
38582;DHT22;24349;53.720;10.014;2023-11-18T15:50:31;5.70;99.90
38582;DHT22;24349;53.720;10.014;2023-11-18T15:52:57;5.70;99.90
38582;DHT22;24349;53.720;10.014;2023-11-18T15:55:23;5.70;99.90
38582;DHT22;24349;53.720;10.014;2023-11-18T15:57:51;5.60;99.90
38582;DHT22;24349;53.720;10.014;2023-11-18T16:00:22;5.70;99.90
38582;DHT22;24349;53.720;10.014;2023-11-18T16:02:51;5.70;99.90